TimePDT,TemperatureF,Dew PointF,Humidity,Sea Level PressureIn,VisibilityMPH,Wind Direction,Wind SpeedMPH,Gust SpeedMPH,PrecipitationIn,Events,Conditions,WindDirDegrees,DateUTC
12:53 AM,43.0,41.0,93,29.78,10.0,NNE,4.6,-,N/A,,Overcast,20,2013-04-07 07:53:00
1:10 AM,42.8,41.0,93,29.74,10.0,NNE,6.9,-,0.00,Rain,Light Rain,20,2013-04-07 08:10:00
1:29 AM,42.8,41.0,93,29.72,8.0,North,6.9,-,0.01,Rain,Light Rain,10,2013-04-07 08:29:00
1:53 AM,42.1,39.9,92,29.72,10.0,North,6.9,-,0.01,,Overcast,360,2013-04-07 08:53:00
2:53 AM,42.1,39.9,92,29.68,10.0,North,6.9,-,N/A,,Overcast,10,2013-04-07 09:53:00
3:53 AM,42.1,39.9,92,29.66,10.0,North,6.9,-,0.00,Rain,Light Rain,10,2013-04-07 10:53:00
4:53 AM,42.1,39.9,92,29.62,10.0,North,6.9,-,0.01,Rain,Light Rain,10,2013-04-07 11:53:00
5:53 AM,42.1,39.9,92,29.59,10.0,North,8.1,-,0.02,Rain,Light Rain,350,2013-04-07 12:53:00
6:53 AM,42.1,39.9,92,29.58,8.0,NW,6.9,-,0.02,Rain,Light Rain,320,2013-04-07 13:53:00
7:35 AM,42.8,41.0,93,29.55,5.0,Variable,5.8,-,0.03,Rain,Light Rain,0,2013-04-07 14:35:00
7:53 AM,42.1,41.0,96,29.58,4.0,NNW,3.5,-,0.05,Rain,Light Rain,340,2013-04-07 14:53:00
8:53 AM,43.0,41.0,93,29.60,5.0,WNW,4.6,-,0.06,Rain,Light Rain,300,2013-04-07 15:53:00
9:53 AM,44.1,41.0,89,29.61,7.0,Calm,Calm,-,0.05,Rain,Light Rain,0,2013-04-07 16:53:00
10:14 AM,44.6,42.8,93,29.60,6.0,Calm,Calm,-,0.01,Rain,Light Rain,0,2013-04-07 17:14:00
10:28 AM,44.6,42.8,93,29.61,6.0,NW,5.8,-,0.02,Rain,Light Rain,320,2013-04-07 17:28:00
10:53 AM,45.0,42.1,90,29.65,5.0,Calm,Calm,-,0.04,Rain,Light Rain,0,2013-04-07 17:53:00
10:58 AM,44.6,42.8,93,29.63,5.0,North,3.5,-,0.00,Rain,Light Rain,350,2013-04-07 17:58:00
11:08 AM,44.6,42.8,93,29.63,4.0,Calm,Calm,-,0.01,Rain,Light Rain,0,2013-04-07 18:08:00
11:53 AM,45.0,42.1,90,29.68,3.0,Calm,Calm,-,0.09,Rain,Light Rain,0,2013-04-07 18:53:00
12:00 PM,44.6,42.8,93,29.66,5.0,Calm,Calm,-,0.00,Rain,Light Rain,0,2013-04-07 19:00:00
12:05 PM,44.6,42.8,93,29.66,6.0,Calm,Calm,-,0.01,Rain,Light Rain,0,2013-04-07 19:05:00
12:53 PM,46.9,44.1,90,29.70,6.0,Variable,5.8,-,0.01,,Overcast,0,2013-04-07 19:53:00
1:53 PM,46.9,43.0,86,29.73,7.0,Variable,3.5,-,0.01,,Overcast,0,2013-04-07 20:53:00
2:53 PM,46.9,43.0,86,29.74,7.0,South,8.1,-,N/A,,Mostly Cloudy,170,2013-04-07 21:53:00
3:53 PM,48.9,39.9,71,29.74,10.0,SSE,10.4,-,N/A,,Overcast,160,2013-04-07 22:53:00
4:53 PM,48.9,41.0,74,29.76,10.0,South,8.1,-,N/A,,Mostly Cloudy,170,2013-04-07 23:53:00
5:53 PM,48.0,41.0,77,29.77,10.0,SSE,10.4,19.6,N/A,,Overcast,160,2013-04-08 00:53:00
6:53 PM,46.9,39.0,74,29.78,10.0,SSE,8.1,-,N/A,,Overcast,160,2013-04-08 01:53:00
7:53 PM,46.0,39.0,76,29.80,10.0,SSE,11.5,17.3,N/A,,Overcast,150,2013-04-08 02:53:00
8:53 PM,46.0,39.0,76,29.82,10.0,SSE,5.8,-,N/A,,Overcast,150,2013-04-08 03:53:00
9:53 PM,45.0,39.9,82,29.84,10.0,SE,4.6,-,N/A,,Overcast,130,2013-04-08 04:53:00
10:53 PM,43.0,39.0,86,29.86,10.0,SSE,4.6,-,N/A,,Mostly Cloudy,160,2013-04-08 05:53:00
11:53 PM,44.1,39.9,85,29.88,10.0,SSE,3.5,-,N/A,,Overcast,160,2013-04-08 06:53:00